createdAt,value
2018-06-29T00:00:07.372Z,17.50
2018-06-29T00:02:35.849Z,17.59
2018-06-29T00:05:04.804Z,17.52
2018-06-29T00:07:33.208Z,17.89
2018-06-29T00:10:01.696Z,17.62
2018-06-29T00:12:30.408Z,17.57
2018-06-29T00:14:58.916Z,17.57
2018-06-29T00:17:27.416Z,17.55
2018-06-29T00:19:55.827Z,17.52
2018-06-29T00:22:24.552Z,17.47
2018-06-29T00:24:53.322Z,17.47
2018-06-29T00:27:21.774Z,17.44
2018-06-29T00:29:50.210Z,17.52
2018-06-29T00:32:18.700Z,17.56
2018-06-29T00:34:47.129Z,17.54
2018-06-29T00:38:44.652Z,17.58
2018-06-29T00:41:13.110Z,17.57
2018-06-29T00:43:41.536Z,17.58
2018-06-29T00:46:10.017Z,17.55
2018-06-29T00:48:38.463Z,17.51
2018-06-29T00:51:07.012Z,17.45
2018-06-29T00:53:35.460Z,17.42
2018-06-29T00:56:03.973Z,17.39
2018-06-29T00:58:32.415Z,17.36
2018-06-29T01:01:00.902Z,17.41
2018-06-29T01:03:29.355Z,17.48
2018-06-29T01:05:57.851Z,17.31
2018-06-29T01:08:26.252Z,17.25
2018-06-29T01:10:54.735Z,17.25
2018-06-29T01:13:23.193Z,17.56
2018-06-29T01:15:51.642Z,17.30
2018-06-29T01:18:20.143Z,17.30
2018-06-29T01:20:48.612Z,17.27
2018-06-29T01:23:17.051Z,17.24
2018-06-29T01:25:45.540Z,17.24
2018-06-29T01:28:14.329Z,17.19
2018-06-29T01:30:42.787Z,17.18
2018-06-29T01:33:11.191Z,17.22
2018-06-29T01:35:39.669Z,17.16
2018-06-29T01:38:08.138Z,17.28
2018-06-29T01:40:36.599Z,17.18
2018-06-29T01:43:05.068Z,17.17
2018-06-29T01:45:33.516Z,17.16
2018-06-29T01:48:01.985Z,17.15
2018-06-29T01:50:30.421Z,17.12
2018-06-29T01:52:58.936Z,17.26
2018-06-29T01:55:27.570Z,17.15
2018-06-29T01:57:56.060Z,17.11
2018-06-29T02:00:24.487Z,17.20
2018-06-29T02:02:53.130Z,17.19
2018-06-29T02:05:21.625Z,17.21
2018-06-29T02:07:50.061Z,17.16
2018-06-29T02:10:18.519Z,17.13
2018-06-29T02:12:46.962Z,17.38
2018-06-29T02:15:15.392Z,17.42
2018-06-29T02:17:43.854Z,17.55
2018-06-29T02:20:12.835Z,17.48
2018-06-29T02:22:41.307Z,17.50
2018-06-29T02:25:10.058Z,17.40
2018-06-29T02:27:38.940Z,17.36
2018-06-29T02:30:07.972Z,17.16
2018-06-29T02:32:36.458Z,17.14
2018-06-29T02:35:04.914Z,17.02
2018-06-29T02:37:33.477Z,16.97
2018-06-29T02:40:01.949Z,16.98
2018-06-29T02:42:30.444Z,16.95
2018-06-29T02:44:58.867Z,16.91
2018-06-29T02:47:27.617Z,16.98
2018-06-29T02:49:56.070Z,16.96
2018-06-29T02:52:24.531Z,17.02
2018-06-29T02:54:52.973Z,16.94
2018-06-29T02:57:21.406Z,16.95
2018-06-29T02:59:49.817Z,17.12
2018-06-29T03:02:19.507Z,16.97
2018-06-29T03:04:48.112Z,17.39
2018-06-29T03:07:16.617Z,17.13
2018-06-29T03:09:45.038Z,17.19
2018-06-29T03:12:13.475Z,17.15
2018-06-29T03:14:41.928Z,17.11
2018-06-29T03:17:10.396Z,17.18
2018-06-29T03:19:38.849Z,17.39
2018-06-29T03:22:07.336Z,17.26
2018-06-29T03:24:35.786Z,17.28
2018-06-29T03:27:04.250Z,17.32
2018-06-29T03:29:32.711Z,17.37
2018-06-29T03:32:01.212Z,17.19
2018-06-29T03:34:29.653Z,17.19
2018-06-29T03:36:58.102Z,17.24
2018-06-29T03:39:26.519Z,17.28
2018-06-29T03:41:54.944Z,17.18
2018-06-29T03:44:23.430Z,17.38
2018-06-29T03:46:51.891Z,17.26
2018-06-29T03:49:20.356Z,17.53
2018-06-29T03:51:48.782Z,17.44
2018-06-29T03:54:17.247Z,17.56
2018-06-29T03:56:45.804Z,17.27
2018-06-29T03:59:14.288Z,17.25
2018-06-29T04:01:42.773Z,17.36
2018-06-29T04:04:11.192Z,17.33
2018-06-29T04:06:39.640Z,17.35
2018-06-29T04:09:09.902Z,17.31
2018-06-29T04:11:38.332Z,17.36
2018-06-29T04:14:06.828Z,17.42
2018-06-29T04:16:35.403Z,17.44
2018-06-29T04:19:03.845Z,17.37
2018-06-29T04:21:32.553Z,17.44
2018-06-29T04:24:01.363Z,17.52
2018-06-29T04:33:13.961Z,17.43
2018-06-29T04:35:42.603Z,17.46
2018-06-29T04:38:11.095Z,17.44
2018-06-29T04:40:39.513Z,17.58
2018-06-29T04:43:08.212Z,17.54
2018-06-29T04:45:36.811Z,17.64
2018-06-29T04:48:05.515Z,17.48
2018-06-29T04:50:34.834Z,17.83
2018-06-29T04:53:03.256Z,17.74
2018-06-29T04:55:31.767Z,17.60
2018-06-29T04:58:00.225Z,17.60
2018-06-29T05:00:28.873Z,17.53
2018-06-29T05:02:57.321Z,17.56
2018-06-29T05:05:26.747Z,17.60
2018-06-29T05:07:55.227Z,17.54
2018-06-29T05:10:24.038Z,17.67
2018-06-29T05:12:52.636Z,17.58
2018-06-29T05:15:21.257Z,17.71
2018-06-29T05:17:49.696Z,17.61
2018-06-29T05:20:18.173Z,17.65
2018-06-29T05:22:46.645Z,17.70
2018-06-29T05:25:15.069Z,17.71
2018-06-29T05:27:43.486Z,17.81
2018-06-29T05:30:12.020Z,17.75
2018-06-29T05:32:40.473Z,17.80
2018-06-29T05:35:08.957Z,17.65
2018-06-29T05:37:37.396Z,17.95
2018-06-29T05:40:06.060Z,17.73
2018-06-29T05:42:34.576Z,17.67
2018-06-29T05:45:02.999Z,17.79
2018-06-29T05:47:31.431Z,17.71
2018-06-29T05:50:00.371Z,17.62
2018-06-29T05:52:28.883Z,18.01
2018-06-29T05:54:57.383Z,17.76
2018-06-29T05:57:25.901Z,17.82
2018-06-29T05:59:54.329Z,17.75
2018-06-29T06:02:22.870Z,17.83
2018-06-29T06:04:51.415Z,17.81
2018-06-29T06:07:19.844Z,17.79
2018-06-29T06:09:48.329Z,17.89
2018-06-29T06:12:16.768Z,17.86
2018-06-29T06:14:45.187Z,17.86
2018-06-29T06:17:13.644Z,17.87
2018-06-29T06:19:53.197Z,17.86
2018-06-29T06:22:21.682Z,18.14
2018-06-29T06:24:50.140Z,18.11
2018-06-29T06:27:18.624Z,18.04
2018-06-29T06:29:47.198Z,18.08
2018-06-29T06:32:15.700Z,18.01
2018-06-29T06:34:44.247Z,18.06
2018-06-29T06:37:12.711Z,18.04
2018-06-29T06:39:41.342Z,18.19
2018-06-29T06:42:09.755Z,18.24
2018-06-29T06:44:38.163Z,18.31
2018-06-29T06:47:06.648Z,18.30
2018-06-29T06:49:35.518Z,18.50
2018-06-29T06:52:04.801Z,18.65
2018-06-29T06:54:33.712Z,18.96
2018-06-29T06:57:02.197Z,19.00
2018-06-29T06:59:30.679Z,19.08
2018-06-29T07:01:59.075Z,18.98
2018-06-29T07:04:27.503Z,19.18
2018-06-29T07:06:55.962Z,19.24
2018-06-29T07:09:24.379Z,19.20
2018-06-29T07:11:52.824Z,19.38
2018-06-29T07:14:21.320Z,19.31
2018-06-29T07:16:49.736Z,19.09
2018-06-29T07:19:18.195Z,19.13
2018-06-29T07:21:46.668Z,18.89
2018-06-29T07:24:15.289Z,19.05
2018-06-29T07:26:43.780Z,19.08
2018-06-29T07:29:12.596Z,18.97
2018-06-29T07:31:41.054Z,19.06
2018-06-29T07:34:09.469Z,19.02
2018-06-29T07:36:37.871Z,19.09
2018-06-29T07:39:08.311Z,19.19
2018-06-29T07:41:36.748Z,19.27
2018-06-29T07:44:05.206Z,19.09
2018-06-29T07:46:33.699Z,19.23
2018-06-29T07:55:46.211Z,19.20
2018-06-29T07:58:14.738Z,19.33
2018-06-29T08:00:43.415Z,19.51
2018-06-29T08:03:11.875Z,19.67
2018-06-29T08:05:40.339Z,19.71
2018-06-29T08:08:08.778Z,19.73
2018-06-29T08:10:37.243Z,19.73
2018-06-29T08:13:05.645Z,19.76
2018-06-29T08:15:34.111Z,19.90
2018-06-29T08:18:02.829Z,19.74
2018-06-29T08:20:31.260Z,20.25
2018-06-29T08:22:59.727Z,20.14
2018-06-29T08:25:28.152Z,21.21
2018-06-29T08:27:56.604Z,21.17
2018-06-29T08:30:25.120Z,21.11
2018-06-29T08:32:53.595Z,21.36
2018-06-29T08:35:22.008Z,21.14
2018-06-29T08:37:50.471Z,21.85
2018-06-29T08:40:18.943Z,21.54
2018-06-29T08:42:47.391Z,21.27
2018-06-29T08:45:15.874Z,20.95
2018-06-29T08:47:44.370Z,20.81
2018-06-29T08:50:12.760Z,20.84
2018-06-29T08:52:41.217Z,21.20
2018-06-29T08:55:09.765Z,21.20
2018-06-29T08:57:38.236Z,20.92
2018-06-29T09:00:07.811Z,20.88
2018-06-29T09:02:36.356Z,21.08
2018-06-29T09:05:05.880Z,21.15
2018-06-29T09:07:34.685Z,20.82
2018-06-29T09:10:03.139Z,20.65
2018-06-29T09:12:31.520Z,20.44
2018-06-29T09:14:59.958Z,20.33
2018-06-29T09:17:28.435Z,20.42
2018-06-29T09:19:56.887Z,20.41
2018-06-29T09:22:25.349Z,20.47
2018-06-29T09:24:54.123Z,20.59
2018-06-29T09:27:22.552Z,20.45
2018-06-29T09:29:50.993Z,20.81
2018-06-29T09:32:19.598Z,20.78
2018-06-29T09:34:48.183Z,20.68
2018-06-29T09:37:16.628Z,20.58
2018-06-29T09:39:45.076Z,20.56
2018-06-29T09:42:13.575Z,20.54
2018-06-29T09:44:42.010Z,20.33
2018-06-29T09:47:10.463Z,20.47
2018-06-29T09:49:38.876Z,20.29
2018-06-29T09:52:07.323Z,20.46
2018-06-29T09:54:35.752Z,20.30
2018-06-29T09:57:04.179Z,20.39
2018-06-29T09:59:32.653Z,20.46
2018-06-29T10:02:01.114Z,20.43
2018-06-29T10:04:29.787Z,20.28
2018-06-29T10:06:58.231Z,20.38
2018-06-29T10:09:26.631Z,20.13
2018-06-29T10:11:55.113Z,20.44
2018-06-29T10:14:23.574Z,20.58
2018-06-29T10:16:51.976Z,20.50
2018-06-29T10:19:20.402Z,20.92
2018-06-29T10:21:48.803Z,21.12
2018-06-29T10:24:17.898Z,21.21
2018-06-29T10:26:46.303Z,21.62
2018-06-29T10:29:14.702Z,21.84
2018-06-29T10:31:43.170Z,22.19
2018-06-29T10:34:11.614Z,22.81
2018-06-29T10:36:40.057Z,23.13
2018-06-29T10:39:13.231Z,22.79
2018-06-29T10:41:42.402Z,22.73
2018-06-29T10:44:10.836Z,22.90
2018-06-29T10:46:40.369Z,22.88
2018-06-29T10:49:08.847Z,22.95
2018-06-29T10:51:37.863Z,23.67
2018-06-29T10:54:06.356Z,23.11
2018-06-29T10:56:34.938Z,23.18
2018-06-29T10:59:03.449Z,23.80
2018-06-29T11:01:31.968Z,23.49
2018-06-29T11:04:00.461Z,24.24
2018-06-29T11:06:28.898Z,23.01
2018-06-29T11:08:57.535Z,24.19
2018-06-29T11:11:25.991Z,23.61
2018-06-29T11:13:54.429Z,23.61
2018-06-29T11:16:22.885Z,23.79
2018-06-29T11:18:51.352Z,24.51
2018-06-29T11:21:19.782Z,23.78
2018-06-29T11:23:48.256Z,23.56
2018-06-29T11:26:16.664Z,22.67
2018-06-29T11:28:45.141Z,23.16
2018-06-29T11:31:13.583Z,23.99
2018-06-29T11:33:42.324Z,23.65
2018-06-29T11:36:10.844Z,24.10
2018-06-29T11:38:39.546Z,24.73
2018-06-29T11:41:08.010Z,24.88
2018-06-29T11:43:36.650Z,25.98
2018-06-29T11:46:05.133Z,25.40
2018-06-29T11:48:33.550Z,24.33
2018-06-29T11:51:01.961Z,24.80
2018-06-29T11:53:30.726Z,25.45
2018-06-29T11:55:59.386Z,24.33
2018-06-29T11:58:28.143Z,24.07
2018-06-29T12:00:56.832Z,23.76
2018-06-29T12:03:26.101Z,23.95
2018-06-29T12:05:54.571Z,24.01
2018-06-29T12:08:23.056Z,23.96
2018-06-29T12:10:51.517Z,23.80
2018-06-29T12:13:20.187Z,23.96
2018-06-29T12:15:48.645Z,23.75
2018-06-29T12:18:17.068Z,23.43
2018-06-29T12:20:45.769Z,23.66
2018-06-29T12:23:14.269Z,23.65
2018-06-29T12:25:42.932Z,23.15
2018-06-29T12:28:11.435Z,23.47
2018-06-29T12:30:39.882Z,23.61
2018-06-29T12:33:08.754Z,23.48
2018-06-29T12:35:37.421Z,23.56
2018-06-29T12:38:06.603Z,23.80
2018-06-29T12:40:35.255Z,24.26
2018-06-29T12:43:03.735Z,24.15
2018-06-29T12:45:32.314Z,23.75
2018-06-29T12:48:00.760Z,23.57
2018-06-29T12:50:29.184Z,23.12
2018-06-29T12:52:57.928Z,23.34
2018-06-29T12:55:26.438Z,23.33
2018-06-29T12:57:54.908Z,23.83
2018-06-29T13:00:23.451Z,24.41
2018-06-29T13:02:52.440Z,24.17
2018-06-29T13:05:21.233Z,25.12
2018-06-29T13:07:49.892Z,24.42
2018-06-29T13:10:18.372Z,23.72
2018-06-29T13:12:46.939Z,23.85
2018-06-29T13:15:15.605Z,23.71
2018-06-29T13:17:44.084Z,24.80
2018-06-29T13:20:12.519Z,24.40
2018-06-29T13:22:40.951Z,24.42
2018-06-29T13:25:09.745Z,24.13
2018-06-29T13:27:38.216Z,23.88
2018-06-29T13:30:07.501Z,23.93
2018-06-29T13:32:35.952Z,23.76
2018-06-29T13:35:04.428Z,24.34
2018-06-29T13:37:32.873Z,24.20
2018-06-29T13:40:01.294Z,24.22
2018-06-29T13:42:29.983Z,24.08
2018-06-29T13:44:58.456Z,23.98
2018-06-29T13:47:27.084Z,24.18
2018-06-29T13:49:55.514Z,25.33
2018-06-29T13:52:23.975Z,24.93
2018-06-29T13:54:52.555Z,24.74
2018-06-29T13:57:21.017Z,24.21
2018-06-29T13:59:49.571Z,24.27
2018-06-29T14:02:18.003Z,24.55
2018-06-29T14:04:46.465Z,24.94
2018-06-29T14:07:14.877Z,25.60
2018-06-29T14:09:43.318Z,25.44
2018-06-29T14:12:11.771Z,24.99
2018-06-29T14:14:40.189Z,25.15
2018-06-29T14:17:08.655Z,27.12
2018-06-29T14:19:37.087Z,27.69
2018-06-29T14:22:05.618Z,27.64
2018-06-29T14:24:34.037Z,27.00
2018-06-29T14:27:02.467Z,26.24
2018-06-29T14:29:30.868Z,25.56
2018-06-29T14:31:59.285Z,25.47
2018-06-29T14:34:27.765Z,25.69
2018-06-29T14:36:56.470Z,25.75
2018-06-29T14:39:24.950Z,26.09
2018-06-29T14:41:53.596Z,27.33
2018-06-29T14:44:22.033Z,27.88
2018-06-29T14:46:50.447Z,28.71
2018-06-29T14:49:18.871Z,28.46
2018-06-29T14:51:47.616Z,29.50
2018-06-29T14:54:16.020Z,27.72
2018-06-29T14:56:44.486Z,26.71
2018-06-29T14:59:12.931Z,25.66
2018-06-29T15:01:41.399Z,25.53
2018-06-29T15:04:10.001Z,25.06
2018-06-29T15:06:38.668Z,24.24
2018-06-29T15:09:08.928Z,23.90
2018-06-29T15:11:37.795Z,23.54
2018-06-29T15:14:06.784Z,23.01
2018-06-29T15:16:35.498Z,22.82
2018-06-29T15:19:03.976Z,22.66
2018-06-29T15:21:32.442Z,22.79
2018-06-29T15:24:02.177Z,22.83
2018-06-29T15:26:31.076Z,22.71
2018-06-29T15:28:59.688Z,22.52
2018-06-29T15:31:28.194Z,22.58
2018-06-29T15:33:56.779Z,22.34
2018-06-29T15:36:25.184Z,22.27
2018-06-29T15:38:53.621Z,22.30
2018-06-29T15:41:22.314Z,22.35
2018-06-29T15:43:50.845Z,22.54
2018-06-29T15:46:19.265Z,22.61
2018-06-29T15:48:47.920Z,22.65
2018-06-29T15:51:16.349Z,23.07
2018-06-29T15:53:44.789Z,23.48
2018-06-29T15:56:13.609Z,23.25
2018-06-29T15:58:42.068Z,22.94
2018-06-29T16:01:10.788Z,23.35
2018-06-29T16:03:39.425Z,23.19
2018-06-29T16:06:07.867Z,23.26
2018-06-29T16:08:36.334Z,23.17
2018-06-29T16:11:04.784Z,23.21
2018-06-29T16:13:33.238Z,22.91
2018-06-29T16:16:01.689Z,23.24
2018-06-29T16:18:30.110Z,23.23
2018-06-29T16:20:58.560Z,23.19
2018-06-29T16:23:27.130Z,23.23
2018-06-29T16:25:55.800Z,23.15
2018-06-29T16:28:24.479Z,23.14
2018-06-29T16:30:52.959Z,23.15
2018-06-29T16:33:21.542Z,23.14
2018-06-29T16:35:49.991Z,23.41
2018-06-29T16:38:18.428Z,24.15
2018-06-29T16:40:46.840Z,24.86
2018-06-29T16:43:15.512Z,25.77
2018-06-29T16:45:44.001Z,24.87
2018-06-29T16:48:12.730Z,24.04
2018-06-29T16:50:41.267Z,24.68
2018-06-29T16:53:09.679Z,24.90
2018-06-29T16:55:38.132Z,23.94
2018-06-29T16:58:06.575Z,23.77
2018-06-29T17:00:35.284Z,23.09
2018-06-29T17:03:03.783Z,22.47
2018-06-29T17:05:32.227Z,22.10
2018-06-29T17:08:00.612Z,22.00
2018-06-29T17:10:29.043Z,21.82
2018-06-29T17:12:57.495Z,21.64
2018-06-29T17:15:25.931Z,21.56
2018-06-29T17:17:54.356Z,21.51
2018-06-29T17:20:22.768Z,21.61
2018-06-29T17:22:51.307Z,21.50
2018-06-29T17:25:19.815Z,21.67
2018-06-29T17:27:48.404Z,21.71
2018-06-29T17:30:16.849Z,21.75
2018-06-29T17:32:45.265Z,21.71
2018-06-29T17:35:13.742Z,21.69
2018-06-29T17:37:42.215Z,21.68
2018-06-29T17:40:10.827Z,21.74
2018-06-29T17:42:39.239Z,21.61
2018-06-29T17:45:07.996Z,21.74
2018-06-29T17:47:36.715Z,21.80
2018-06-29T17:50:05.226Z,21.89
2018-06-29T17:52:33.655Z,21.94
2018-06-29T17:55:02.133Z,21.85
2018-06-29T17:57:30.551Z,21.85
2018-06-29T17:59:59.271Z,21.78
2018-06-29T18:02:27.734Z,21.70
2018-06-29T18:04:56.203Z,21.64
2018-06-29T18:07:24.652Z,21.64
2018-06-29T18:09:53.350Z,21.51
2018-06-29T18:12:21.824Z,21.47
2018-06-29T18:14:50.265Z,21.47
2018-06-29T18:17:18.712Z,21.40
2018-06-29T18:19:47.195Z,21.28
2018-06-29T18:22:15.687Z,21.28
2018-06-29T18:24:44.254Z,21.19
2018-06-29T18:27:12.836Z,21.15
2018-06-29T18:29:41.627Z,21.15
2018-06-29T18:32:10.080Z,21.11
2018-06-29T18:34:38.600Z,21.03
2018-06-29T18:37:07.035Z,21.07
2018-06-29T18:39:35.504Z,21.02
2018-06-29T18:42:04.079Z,20.98
2018-06-29T18:44:32.768Z,20.94
2018-06-29T18:47:01.223Z,20.92
2018-06-29T18:49:29.684Z,20.85
2018-06-29T18:51:58.111Z,20.78
2018-06-29T18:54:26.599Z,20.77
2018-06-29T18:56:55.156Z,20.68
2018-06-29T18:59:23.567Z,20.78
2018-06-29T19:01:52.131Z,20.68
2018-06-29T19:04:20.558Z,20.59
2018-06-29T19:06:49.121Z,20.60
2018-06-29T19:09:17.576Z,20.53
2018-06-29T19:11:46.066Z,20.46
2018-06-29T19:14:14.608Z,20.42
2018-06-29T19:16:43.238Z,20.41
2018-06-29T19:19:11.745Z,20.34
2018-06-29T19:21:40.191Z,20.31
2018-06-29T19:24:08.599Z,20.25
2018-06-29T19:26:37.318Z,20.31
2018-06-29T19:29:05.843Z,20.28
2018-06-29T19:31:34.287Z,20.21
2018-06-29T19:34:02.762Z,20.18
2018-06-29T19:36:31.235Z,20.15
2018-06-29T19:38:59.777Z,20.21
2018-06-29T19:41:28.263Z,20.24
2018-06-29T19:43:56.656Z,20.14
2018-06-29T19:46:25.102Z,20.16
2018-06-29T19:48:53.521Z,20.18
2018-06-29T19:51:21.947Z,20.18
2018-06-29T19:53:50.423Z,20.13
2018-06-29T19:56:18.842Z,20.18
2018-06-29T19:58:47.329Z,20.15
2018-06-29T20:01:15.759Z,21.94
2018-06-29T20:03:44.181Z,21.84
2018-06-29T20:06:12.588Z,20.99
2018-06-29T20:08:41.035Z,20.15
2018-06-29T20:11:09.475Z,20.19
2018-06-29T20:13:37.860Z,20.29
2018-06-29T20:16:06.428Z,20.29
2018-06-29T20:18:34.862Z,20.33
2018-06-29T20:21:03.316Z,20.35
2018-06-29T20:23:31.828Z,20.41
2018-06-29T20:26:00.541Z,20.42
2018-06-29T20:28:28.979Z,20.39
2018-06-29T20:30:57.446Z,20.42
2018-06-29T20:33:25.949Z,20.42
2018-06-29T20:35:54.439Z,20.44
2018-06-29T20:38:22.983Z,20.45
2018-06-29T20:40:51.448Z,20.43
2018-06-29T20:43:19.912Z,20.40
2018-06-29T20:45:48.490Z,20.38
2018-06-29T20:48:17.604Z,20.40
2018-06-29T20:50:46.048Z,20.33
2018-06-29T20:53:14.536Z,20.37
2018-06-29T20:55:43.037Z,20.33
2018-06-29T20:58:11.508Z,20.40
2018-06-29T21:07:24.111Z,20.18
2018-06-29T21:09:52.617Z,20.25
2018-06-29T21:12:21.031Z,20.29
2018-06-29T21:14:49.479Z,20.26
2018-06-29T21:17:17.906Z,20.32
2018-06-29T21:19:46.373Z,20.37
2018-06-29T21:22:14.810Z,20.31
2018-06-29T21:24:43.270Z,20.31
2018-06-29T21:27:11.919Z,20.24
2018-06-29T21:29:40.340Z,20.32
2018-06-29T21:32:09.420Z,20.31
2018-06-29T21:34:37.886Z,20.35
2018-06-29T21:37:06.351Z,20.34
2018-06-29T21:39:34.811Z,20.36
2018-06-29T21:42:03.298Z,20.32
2018-06-29T21:44:31.737Z,20.30
2018-06-29T21:47:00.175Z,20.32
2018-06-29T21:49:28.622Z,20.36
2018-06-29T21:51:57.194Z,20.42
2018-06-29T21:54:25.809Z,20.36
2018-06-29T21:56:54.209Z,20.37
2018-06-29T21:59:22.759Z,20.37
2018-06-29T22:01:51.252Z,20.29
2018-06-29T22:05:22.571Z,20.29
2018-06-29T22:07:51.100Z,20.27
2018-06-29T22:10:19.547Z,20.24
2018-06-29T22:12:47.962Z,20.29
2018-06-29T22:15:23.314Z,20.28
2018-06-29T22:17:52.058Z,20.22
2018-06-29T22:20:20.965Z,20.20
2018-06-29T22:22:49.424Z,20.18
2018-06-29T22:25:18.140Z,20.21
2018-06-29T22:27:46.551Z,20.14
2018-06-29T22:30:14.970Z,20.09
2018-06-29T22:32:43.520Z,20.04
2018-06-29T22:35:12.181Z,20.14
2018-06-29T22:37:40.636Z,20.14
2018-06-29T22:40:09.786Z,20.10
2018-06-29T22:42:38.204Z,20.10
2018-06-29T22:45:07.335Z,20.06
2018-06-29T22:47:36.138Z,19.95
2018-06-29T22:50:05.016Z,19.97
2018-06-29T22:52:33.500Z,19.98
2018-06-29T22:56:31.412Z,19.88
2018-06-29T22:58:59.861Z,19.84
2018-06-29T23:01:28.475Z,19.82
2018-06-29T23:03:57.025Z,19.86
2018-06-29T23:06:26.494Z,19.87
2018-06-29T23:08:55.436Z,19.84
2018-06-29T23:11:24.247Z,19.76
2018-06-29T23:13:53.175Z,19.67
2018-06-29T23:16:21.640Z,19.68
2018-06-29T23:18:50.324Z,19.72
2018-06-29T23:21:18.766Z,19.67
2018-06-29T23:23:47.231Z,19.57
2018-06-29T23:26:16.016Z,19.56
2018-06-29T23:28:44.460Z,19.50
2018-06-29T23:31:12.933Z,19.49
2018-06-29T23:33:41.355Z,19.44
2018-06-29T23:36:09.928Z,19.35
2018-06-29T23:38:38.402Z,19.25
2018-06-29T23:41:06.999Z,19.16
2018-06-29T23:43:35.432Z,19.18
2018-06-29T23:46:03.943Z,19.14
2018-06-29T23:48:32.572Z,19.09
2018-06-29T23:51:01.013Z,19.17
2018-06-29T23:53:29.471Z,19.13
2018-06-29T23:55:57.912Z,19.10
2018-06-29T23:58:26.392Z,19.02
